Aviation Digital Data Service (ADDS)

Output produced by TAFs form (2349 UTC 03 December 2016)
found at http://www.aviationweather.gov/adds/tafs/
 
KDEN 032253Z 04005KT 10SM BKN100 BKN200 03/M07 A2996 RMK AO2 SLP166 T00281072
KDEN 032333Z 0400/0506 03004KT P6SM FEW120 SCT200 
     FM040200 15007KT P6SM FEW120 SCT200 
     FM040400 20008KT P6SM FEW200 
     FM041700 16008KT P6SM FEW120 SCT180 
     FM050300 21007KT P6SM FEW120 SCT180